sensor_id;sensor_type;location;lat;lon;timestamp;pressure;altitude;pressure_sealevel;temperature;humidity
37390;BME280;39679;49.000;8.390;2022-08-01T00:00:16;100231.31;;;25.03;34.30
37390;BME280;39679;49.000;8.390;2022-08-01T00:05:16;100235.31;;;25.12;34.88
37390;BME280;39679;49.000;8.390;2022-08-01T00:10:17;100240.59;;;24.96;34.76
37390;BME280;39679;49.000;8.390;2022-08-01T00:15:17;100239.34;;;25.03;35.36
37390;BME280;39679;49.000;8.390;2022-08-01T00:20:17;100239.81;;;25.11;35.40
37390;BME280;39679;49.000;8.390;2022-08-01T00:25:18;100243.94;;;25.18;35.31
37390;BME280;39679;49.000;8.390;2022-08-01T00:30:18;100245.41;;;25.24;35.46
37390;BME280;39679;49.000;8.390;2022-08-01T00:35:19;100245.09;;;25.13;36.10
37390;BME280;39679;49.000;8.390;2022-08-01T00:40:19;100256.19;;;24.71;34.87
37390;BME280;39679;49.000;8.390;2022-08-01T00:45:19;100256.94;;;24.20;34.61
37390;BME280;39679;49.000;8.390;2022-08-01T00:50:20;100251.50;;;23.85;34.34
37390;BME280;39679;49.000;8.390;2022-08-01T00:55:20;100243.84;;;23.96;34.81
37390;BME280;39679;49.000;8.390;2022-08-01T01:00:21;100253.19;;;24.24;36.07
37390;BME280;39679;49.000;8.390;2022-08-01T01:05:21;100261.69;;;24.51;36.12
37390;BME280;39679;49.000;8.390;2022-08-01T01:10:43;100258.00;;;24.71;35.96
37390;BME280;39679;49.000;8.390;2022-08-01T01:15:55;100257.19;;;24.87;35.77
37390;BME280;39679;49.000;8.390;2022-08-01T01:31:21;100258.34;;;25.16;36.49
37390;BME280;39679;49.000;8.390;2022-08-01T01:36:25;100256.22;;;25.22;36.76
37390;BME280;39679;49.000;8.390;2022-08-01T01:41:28;100262.09;;;25.29;36.87
37390;BME280;39679;49.000;8.390;2022-08-01T01:46:30;100265.44;;;25.34;36.76
37390;BME280;39679;49.000;8.390;2022-08-01T01:51:31;100271.41;;;25.39;36.88
37390;BME280;39679;49.000;8.390;2022-08-01T01:56:33;100267.63;;;25.43;36.89
37390;BME280;39679;49.000;8.390;2022-08-01T02:01:36;100273.72;;;25.47;37.29
37390;BME280;39679;49.000;8.390;2022-08-01T02:06:37;100275.41;;;25.49;37.07
37390;BME280;39679;49.000;8.390;2022-08-01T02:11:38;100264.38;;;25.54;37.49
37390;BME280;39679;49.000;8.390;2022-08-01T02:16:41;100263.38;;;25.56;37.43
37390;BME280;39679;49.000;8.390;2022-08-01T02:22:01;100264.06;;;25.60;37.62
37390;BME280;39679;49.000;8.390;2022-08-01T02:27:09;100265.72;;;25.62;37.91
37390;BME280;39679;49.000;8.390;2022-08-01T02:32:23;100264.69;;;25.65;37.91
37390;BME280;39679;49.000;8.390;2022-08-01T02:37:26;100269.63;;;25.72;38.13
37390;BME280;39679;49.000;8.390;2022-08-01T02:42:27;100271.81;;;25.31;37.44
37390;BME280;39679;49.000;8.390;2022-08-01T02:47:29;100265.84;;;24.57;36.18
37390;BME280;39679;49.000;8.390;2022-08-01T02:52:31;100274.22;;;24.32;36.10
37390;BME280;39679;49.000;8.390;2022-08-01T02:57:33;100285.41;;;24.59;36.61
37390;BME280;39679;49.000;8.390;2022-08-01T03:02:36;100269.88;;;25.01;36.78
37390;BME280;39679;49.000;8.390;2022-08-01T03:07:38;100261.59;;;25.22;37.03
37390;BME280;39679;49.000;8.390;2022-08-01T03:12:40;100269.91;;;25.33;37.06
37390;BME280;39679;49.000;8.390;2022-08-01T03:17:43;100261.72;;;25.37;36.89
37390;BME280;39679;49.000;8.390;2022-08-01T03:22:44;100262.41;;;25.40;37.20
37390;BME280;39679;49.000;8.390;2022-08-01T03:27:50;100262.13;;;25.46;37.25
37390;BME280;39679;49.000;8.390;2022-08-01T03:32:52;100268.97;;;25.52;37.53
37390;BME280;39679;49.000;8.390;2022-08-01T03:37:54;100273.22;;;25.56;37.49
37390;BME280;39679;49.000;8.390;2022-08-01T03:42:59;100274.78;;;25.60;37.53
37390;BME280;39679;49.000;8.390;2022-08-01T03:48:02;100268.41;;;25.62;38.07
37390;BME280;39679;49.000;8.390;2022-08-01T03:53:03;100270.94;;;25.65;37.96
37390;BME280;39679;49.000;8.390;2022-08-01T03:58:07;100277.00;;;25.69;38.35
37390;BME280;39679;49.000;8.390;2022-08-01T04:03:10;100271.53;;;25.70;38.33
37390;BME280;39679;49.000;8.390;2022-08-01T04:08:11;100261.56;;;25.72;38.09
37390;BME280;39679;49.000;8.390;2022-08-01T04:13:11;100273.09;;;25.74;38.09
37390;BME280;39679;49.000;8.390;2022-08-01T04:18:11;100268.50;;;25.76;38.32
37390;BME280;39679;49.000;8.390;2022-08-01T04:23:14;100271.03;;;25.79;38.22
37390;BME280;39679;49.000;8.390;2022-08-01T04:28:16;100279.97;;;25.80;38.26
37390;BME280;39679;49.000;8.390;2022-08-01T04:33:18;100283.50;;;25.80;38.39
37390;BME280;39679;49.000;8.390;2022-08-01T04:38:21;100286.13;;;25.82;38.86
37390;BME280;39679;49.000;8.390;2022-08-01T04:43:22;100288.72;;;25.83;38.61
37390;BME280;39679;49.000;8.390;2022-08-01T04:48:23;100296.69;;;25.85;38.72
37390;BME280;39679;49.000;8.390;2022-08-01T04:53:24;100294.00;;;25.85;38.87
37390;BME280;39679;49.000;8.390;2022-08-01T04:58:24;100297.47;;;25.87;39.01
37390;BME280;39679;49.000;8.390;2022-08-01T05:03:25;100290.28;;;25.87;39.02
37390;BME280;39679;49.000;8.390;2022-08-01T05:08:25;100296.53;;;25.88;39.21
37390;BME280;39679;49.000;8.390;2022-08-01T05:13:25;100297.31;;;25.90;39.29
37390;BME280;39679;49.000;8.390;2022-08-01T05:18:26;100297.22;;;25.91;39.76
37390;BME280;39679;49.000;8.390;2022-08-01T05:23:26;100292.78;;;25.90;39.63
37390;BME280;39679;49.000;8.390;2022-08-01T05:28:26;100296.25;;;25.92;39.63
37390;BME280;39679;49.000;8.390;2022-08-01T05:33:27;100295.31;;;25.93;39.73
37390;BME280;39679;49.000;8.390;2022-08-01T05:38:27;100298.88;;;25.94;39.80
37390;BME280;39679;49.000;8.390;2022-08-01T05:43:27;100295.22;;;25.95;39.79
37390;BME280;39679;49.000;8.390;2022-08-01T05:48:28;100296.97;;;25.96;40.07
37390;BME280;39679;49.000;8.390;2022-08-01T05:53:29;100295.22;;;25.95;40.11
37390;BME280;39679;49.000;8.390;2022-08-01T05:58:29;100298.69;;;25.97;39.98
37390;BME280;39679;49.000;8.390;2022-08-01T06:03:30;100297.75;;;25.98;39.91
37390;BME280;39679;49.000;8.390;2022-08-01T06:08:31;100300.44;;;25.98;40.10
37390;BME280;39679;49.000;8.390;2022-08-01T06:13:31;100305.72;;;25.99;40.00
37390;BME280;39679;49.000;8.390;2022-08-01T06:18:33;100306.59;;;26.00;40.07
37390;BME280;39679;49.000;8.390;2022-08-01T06:23:35;100308.31;;;26.01;40.30
37390;BME280;39679;49.000;8.390;2022-08-01T06:28:37;100303.81;;;26.01;40.22
37390;BME280;39679;49.000;8.390;2022-08-01T06:33:37;100319.06;;;26.01;40.34
37390;BME280;39679;49.000;8.390;2022-08-01T06:38:38;100316.38;;;26.01;40.38
37390;BME280;39679;49.000;8.390;2022-08-01T06:43:39;100311.78;;;26.03;40.40
37390;BME280;39679;49.000;8.390;2022-08-01T06:48:40;100324.28;;;26.04;40.23
37390;BME280;39679;49.000;8.390;2022-08-01T06:53:41;100316.22;;;26.04;40.20
37390;BME280;39679;49.000;8.390;2022-08-01T06:58:41;100328.69;;;26.05;40.25
37390;BME280;39679;49.000;8.390;2022-08-01T07:03:42;100328.69;;;26.05;40.37
37390;BME280;39679;49.000;8.390;2022-08-01T07:08:42;100329.56;;;26.05;40.21
37390;BME280;39679;49.000;8.390;2022-08-01T07:13:42;100331.28;;;26.06;40.39
37390;BME280;39679;49.000;8.390;2022-08-01T07:18:43;100329.50;;;26.07;40.40
37390;BME280;39679;49.000;8.390;2022-08-01T07:23:43;100325.00;;;26.07;40.43
37390;BME280;39679;49.000;8.390;2022-08-01T07:28:44;100321.38;;;26.08;40.48
37390;BME280;39679;49.000;8.390;2022-08-01T07:33:45;100325.78;;;26.09;40.48
37390;BME280;39679;49.000;8.390;2022-08-01T07:38:46;100313.22;;;26.10;40.42
37390;BME280;39679;49.000;8.390;2022-08-01T07:43:46;100314.09;;;26.10;40.69
37390;BME280;39679;49.000;8.390;2022-08-01T07:48:47;100311.31;;;26.12;40.47
37390;BME280;39679;49.000;8.390;2022-08-01T07:53:47;100321.97;;;26.13;40.90
37390;BME280;39679;49.000;8.390;2022-08-01T07:58:48;100313.75;;;26.17;41.09
37390;BME280;39679;49.000;8.390;2022-08-01T08:03:48;100306.38;;;26.20;41.01
37390;BME280;39679;49.000;8.390;2022-08-01T08:08:48;100301.78;;;26.22;40.98
37390;BME280;39679;49.000;8.390;2022-08-01T08:13:49;100305.25;;;26.08;43.94
37390;BME280;39679;49.000;8.390;2022-08-01T08:18:49;100298.91;;;26.09;44.44
37390;BME280;39679;49.000;8.390;2022-08-01T08:23:49;100294.16;;;26.15;43.83
37390;BME280;39679;49.000;8.390;2022-08-01T08:28:50;100301.09;;;26.19;43.32
37390;BME280;39679;49.000;8.390;2022-08-01T08:33:50;100307.94;;;26.24;42.99
37390;BME280;39679;49.000;8.390;2022-08-01T08:38:50;100306.03;;;26.26;43.57
37390;BME280;39679;49.000;8.390;2022-08-01T08:43:51;100294.41;;;26.26;44.31
37390;BME280;39679;49.000;8.390;2022-08-01T08:48:55;100295.28;;;26.10;45.14
37390;BME280;39679;49.000;8.390;2022-08-01T08:53:57;100288.97;;;26.11;45.08
37390;BME280;39679;49.000;8.390;2022-08-01T08:58:58;100287.59;;;26.03;46.06
37390;BME280;39679;49.000;8.390;2022-08-01T09:03:59;100288.72;;;25.99;46.48
37390;BME280;39679;49.000;8.390;2022-08-01T09:08:59;100291.75;;;25.93;46.68
37390;BME280;39679;49.000;8.390;2022-08-01T09:14:11;100294.97;;;25.99;46.45
37390;BME280;39679;49.000;8.390;2022-08-01T09:19:17;100304.84;;;25.99;46.32
37390;BME280;39679;49.000;8.390;2022-08-01T09:24:18;100297.13;;;25.93;46.55
37390;BME280;39679;49.000;8.390;2022-08-01T09:29:22;100296.97;;;25.96;46.53
37390;BME280;39679;49.000;8.390;2022-08-01T09:34:27;100298.09;;;25.92;46.93
37390;BME280;39679;49.000;8.390;2022-08-01T09:39:37;100300.84;;;25.90;46.65
37390;BME280;39679;49.000;8.390;2022-08-01T09:44:43;100302.75;;;25.88;46.67
37390;BME280;39679;49.000;8.390;2022-08-01T09:49:44;100305.28;;;25.91;47.01
37390;BME280;39679;49.000;8.390;2022-08-01T09:59:54;100299.31;;;26.02;46.57
37390;BME280;39679;49.000;8.390;2022-08-01T10:04:55;100301.38;;;25.97;46.91
37390;BME280;39679;49.000;8.390;2022-08-01T10:09:55;100302.94;;;26.01;47.05
37390;BME280;39679;49.000;8.390;2022-08-01T10:14:55;100287.41;;;26.07;46.58
37390;BME280;39679;49.000;8.390;2022-08-01T10:19:56;100288.88;;;26.13;46.72
37390;BME280;39679;49.000;8.390;2022-08-01T10:25:03;100277.88;;;26.18;46.69
37390;BME280;39679;49.000;8.390;2022-08-01T10:30:05;100271.47;;;26.20;46.52
37390;BME280;39679;49.000;8.390;2022-08-01T10:35:08;100272.06;;;26.25;46.41
37390;BME280;39679;49.000;8.390;2022-08-01T10:40:11;100274.69;;;26.27;46.67
37390;BME280;39679;49.000;8.390;2022-08-01T10:45:14;100271.81;;;26.30;46.37
37390;BME280;39679;49.000;8.390;2022-08-01T10:50:31;100270.88;;;26.31;46.42
37390;BME280;39679;49.000;8.390;2022-08-01T10:55:52;100262.72;;;26.32;46.77
37390;BME280;39679;49.000;8.390;2022-08-01T11:06:24;100261.91;;;26.46;45.82
37390;BME280;39679;49.000;8.390;2022-08-01T11:11:28;100246.50;;;26.49;45.82
37390;BME280;39679;49.000;8.390;2022-08-01T11:16:32;100261.56;;;26.52;45.59
37390;BME280;39679;49.000;8.390;2022-08-01T11:32:27;100244.28;;;26.56;45.23
37390;BME280;39679;49.000;8.390;2022-08-01T11:37:32;100252.34;;;26.56;44.97
37390;BME280;39679;49.000;8.390;2022-08-01T11:48:30;100223.56;;;26.58;44.79
37390;BME280;39679;49.000;8.390;2022-08-01T11:53:30;100228.88;;;26.44;44.02
37390;BME280;39679;49.000;8.390;2022-08-01T11:58:31;100219.66;;;25.70;41.05
37390;BME280;39679;49.000;8.390;2022-08-01T12:03:32;100211.75;;;25.01;39.06
37390;BME280;39679;49.000;8.390;2022-08-01T12:08:33;100221.25;;;24.55;38.15
37390;BME280;39679;49.000;8.390;2022-08-01T12:13:42;100213.41;;;24.34;36.72
37390;BME280;39679;49.000;8.390;2022-08-01T12:18:43;100212.66;;;24.13;36.50
37390;BME280;39679;49.000;8.390;2022-08-01T12:23:43;100212.63;;;23.95;35.67
37390;BME280;39679;49.000;8.390;2022-08-01T12:28:43;100209.75;;;23.81;35.26
37390;BME280;39679;49.000;8.390;2022-08-01T12:33:44;100202.09;;;23.73;35.32
37390;BME280;39679;49.000;8.390;2022-08-01T12:38:44;100198.69;;;24.07;36.09
37390;BME280;39679;49.000;8.390;2022-08-01T12:43:52;100193.19;;;24.45;36.91
37390;BME280;39679;49.000;8.390;2022-08-01T12:48:52;100196.06;;;24.77;37.23
37390;BME280;39679;49.000;8.390;2022-08-01T12:53:53;100184.94;;;25.01;37.18
37390;BME280;39679;49.000;8.390;2022-08-01T12:58:53;100192.78;;;25.21;37.62
37390;BME280;39679;49.000;8.390;2022-08-01T13:04:03;100182.97;;;25.38;38.28
37390;BME280;39679;49.000;8.390;2022-08-01T13:09:08;100177.75;;;25.52;37.91
37390;BME280;39679;49.000;8.390;2022-08-01T13:14:09;100182.53;;;25.62;38.66
37390;BME280;39679;49.000;8.390;2022-08-01T13:19:09;100183.94;;;25.69;38.51
37390;BME280;39679;49.000;8.390;2022-08-01T13:24:11;100178.13;;;25.77;39.01
37390;BME280;39679;49.000;8.390;2022-08-01T13:29:32;100175.09;;;25.83;39.30
37390;BME280;39679;49.000;8.390;2022-08-01T13:34:33;100177.28;;;25.92;39.81
37390;BME280;39679;49.000;8.390;2022-08-01T13:39:34;100159.94;;;25.97;39.63
37390;BME280;39679;49.000;8.390;2022-08-01T13:44:34;100180.28;;;26.01;40.19
37390;BME280;39679;49.000;8.390;2022-08-01T13:49:35;100170.22;;;26.05;40.70
37390;BME280;39679;49.000;8.390;2022-08-01T13:54:35;100174.81;;;25.39;37.84
37390;BME280;39679;49.000;8.390;2022-08-01T13:59:35;100180.41;;;24.68;36.46
37390;BME280;39679;49.000;8.390;2022-08-01T14:04:36;100169.44;;;24.21;35.55
37390;BME280;39679;49.000;8.390;2022-08-01T14:09:36;100174.19;;;23.79;35.07
37390;BME280;39679;49.000;8.390;2022-08-01T14:14:37;100159.13;;;23.57;35.05
37390;BME280;39679;49.000;8.390;2022-08-01T14:19:37;100159.22;;;23.74;36.06
37390;BME280;39679;49.000;8.390;2022-08-01T14:24:37;100168.63;;;24.19;36.40
37390;BME280;39679;49.000;8.390;2022-08-01T14:29:38;100169.31;;;24.58;36.98
37390;BME280;39679;49.000;8.390;2022-08-01T14:34:38;100171.41;;;24.87;36.90
37390;BME280;39679;49.000;8.390;2022-08-01T14:39:38;100162.03;;;25.11;37.19
37390;BME280;39679;49.000;8.390;2022-08-01T14:44:39;100163.75;;;25.29;37.32
37390;BME280;39679;49.000;8.390;2022-08-01T14:49:39;100155.84;;;25.44;37.50
37390;BME280;39679;49.000;8.390;2022-08-01T14:54:39;100157.00;;;25.55;37.80
37390;BME280;39679;49.000;8.390;2022-08-01T14:59:40;100164.50;;;25.64;38.05
37390;BME280;39679;49.000;8.390;2022-08-01T15:04:40;100168.03;;;25.16;36.84
37390;BME280;39679;49.000;8.390;2022-08-01T15:09:41;100166.81;;;24.55;38.50
37390;BME280;39679;49.000;8.390;2022-08-01T15:14:42;100168.38;;;24.59;40.15
37390;BME280;39679;49.000;8.390;2022-08-01T15:19:42;100167.38;;;24.96;42.15
37390;BME280;39679;49.000;8.390;2022-08-01T15:24:43;100177.03;;;25.15;40.55
37390;BME280;39679;49.000;8.390;2022-08-01T15:29:43;100167.09;;;24.66;38.62
37390;BME280;39679;49.000;8.390;2022-08-01T15:34:44;100173.19;;;24.17;37.44
37390;BME280;39679;49.000;8.390;2022-08-01T15:39:44;100173.50;;;23.73;36.67
37390;BME280;39679;49.000;8.390;2022-08-01T15:44:45;100164.78;;;23.51;36.20
37390;BME280;39679;49.000;8.390;2022-08-01T15:49:45;100169.97;;;23.36;35.96
37390;BME280;39679;49.000;8.390;2022-08-01T15:54:45;100178.63;;;23.41;36.64
37390;BME280;39679;49.000;8.390;2022-08-01T15:59:46;100181.97;;;24.02;36.88
37390;BME280;39679;49.000;8.390;2022-08-01T16:04:46;100183.72;;;24.55;36.95
37390;BME280;39679;49.000;8.390;2022-08-01T16:09:46;100183.00;;;24.88;37.09
37390;BME280;39679;49.000;8.390;2022-08-01T16:14:47;100180.81;;;25.11;37.73
37390;BME280;39679;49.000;8.390;2022-08-01T16:19:47;100179.69;;;25.32;39.24
37390;BME280;39679;49.000;8.390;2022-08-01T16:24:48;100186.06;;;25.47;40.70
37390;BME280;39679;49.000;8.390;2022-08-01T16:29:48;100190.22;;;25.03;40.29
37390;BME280;39679;49.000;8.390;2022-08-01T16:34:49;100178.94;;;24.96;40.21
37390;BME280;39679;49.000;8.390;2022-08-01T16:39:49;100177.44;;;25.08;40.07
37390;BME280;39679;49.000;8.390;2022-08-01T16:44:49;100176.78;;;25.20;39.87
37390;BME280;39679;49.000;8.390;2022-08-01T16:49:50;100178.91;;;25.30;39.95
37390;BME280;39679;49.000;8.390;2022-08-01T16:54:50;100183.75;;;25.40;39.79
37390;BME280;39679;49.000;8.390;2022-08-01T16:59:50;100176.25;;;25.46;39.57
37390;BME280;39679;49.000;8.390;2022-08-01T17:04:51;100179.59;;;25.51;39.41
37390;BME280;39679;49.000;8.390;2022-08-01T17:09:51;100185.44;;;25.58;39.29
37390;BME280;39679;49.000;8.390;2022-08-01T17:14:52;100188.84;;;25.61;39.36
37390;BME280;39679;49.000;8.390;2022-08-01T17:19:52;100193.09;;;25.65;39.34
37390;BME280;39679;49.000;8.390;2022-08-01T17:24:52;100183.84;;;25.71;39.53
37390;BME280;39679;49.000;8.390;2022-08-01T17:29:53;100182.81;;;25.73;39.33
37390;BME280;39679;49.000;8.390;2022-08-01T17:34:53;100192.50;;;25.76;39.17
37390;BME280;39679;49.000;8.390;2022-08-01T17:39:54;100187.81;;;25.79;39.36
37390;BME280;39679;49.000;8.390;2022-08-01T17:44:55;100193.34;;;25.45;39.26
37390;BME280;39679;49.000;8.390;2022-08-01T17:49:55;100197.69;;;24.62;38.42
37390;BME280;39679;49.000;8.390;2022-08-01T17:54:56;100208.00;;;23.98;37.33
37390;BME280;39679;49.000;8.390;2022-08-01T17:59:57;100210.25;;;23.51;36.75
37390;BME280;39679;49.000;8.390;2022-08-01T18:04:57;100215.81;;;23.27;36.88
37390;BME280;39679;49.000;8.390;2022-08-01T18:09:58;100214.69;;;23.12;36.29
37390;BME280;39679;49.000;8.390;2022-08-01T18:14:58;100224.19;;;22.99;35.83
37390;BME280;39679;49.000;8.390;2022-08-01T18:19:59;100219.44;;;22.85;35.52
37390;BME280;39679;49.000;8.390;2022-08-01T18:24:59;100222.63;;;22.73;36.08
37390;BME280;39679;49.000;8.390;2022-08-01T18:30:00;100221.44;;;22.80;36.54
37390;BME280;39679;49.000;8.390;2022-08-01T18:35:00;100221.78;;;22.93;35.67
37390;BME280;39679;49.000;8.390;2022-08-01T18:40:01;100227.75;;;23.00;35.82
37390;BME280;39679;49.000;8.390;2022-08-01T18:45:01;100224.13;;;23.01;35.22
37390;BME280;39679;49.000;8.390;2022-08-01T18:50:02;100227.88;;;22.97;35.54
37390;BME280;39679;49.000;8.390;2022-08-01T18:55:02;100235.75;;;23.00;35.46
37390;BME280;39679;49.000;8.390;2022-08-01T19:00:03;100239.81;;;23.28;35.92
37390;BME280;39679;49.000;8.390;2022-08-01T19:05:04;100249.47;;;23.71;38.70
37390;BME280;39679;49.000;8.390;2022-08-01T19:10:05;100260.19;;;24.08;40.67
37390;BME280;39679;49.000;8.390;2022-08-01T19:15:05;100259.75;;;24.36;40.88
37390;BME280;39679;49.000;8.390;2022-08-01T19:20:06;100272.94;;;24.58;41.50
37390;BME280;39679;49.000;8.390;2022-08-01T19:25:07;100274.06;;;24.71;40.72
37390;BME280;39679;49.000;8.390;2022-08-01T19:30:09;100275.50;;;24.78;40.52
37390;BME280;39679;49.000;8.390;2022-08-01T19:35:11;100279.63;;;24.85;40.01
37390;BME280;39679;49.000;8.390;2022-08-01T19:40:13;100290.03;;;24.91;39.69
37390;BME280;39679;49.000;8.390;2022-08-01T19:45:14;100298.75;;;24.96;39.48
37390;BME280;39679;49.000;8.390;2022-08-01T19:50:14;100304.72;;;25.01;39.09
37390;BME280;39679;49.000;8.390;2022-08-01T19:55:15;100308.03;;;25.06;39.38
37390;BME280;39679;49.000;8.390;2022-08-01T20:00:16;100300.63;;;25.11;39.31
37390;BME280;39679;49.000;8.390;2022-08-01T20:05:17;100310.31;;;25.13;39.22
37390;BME280;39679;49.000;8.390;2022-08-01T20:10:20;100312.00;;;25.16;39.27
37390;BME280;39679;49.000;8.390;2022-08-01T20:15:21;100308.19;;;25.20;39.31
37390;BME280;39679;49.000;8.390;2022-08-01T20:20:21;100314.34;;;25.22;39.28
37390;BME280;39679;49.000;8.390;2022-08-01T20:25:27;100320.34;;;25.27;39.22
37390;BME280;39679;49.000;8.390;2022-08-01T20:30:28;100319.31;;;25.29;38.88
37390;BME280;39679;49.000;8.390;2022-08-01T20:35:29;100318.28;;;25.32;38.91
37390;BME280;39679;49.000;8.390;2022-08-01T20:40:30;100320.75;;;25.37;38.77
37390;BME280;39679;49.000;8.390;2022-08-01T20:45:30;100312.31;;;25.44;40.03
37390;BME280;39679;49.000;8.390;2022-08-01T20:50:31;100320.81;;;25.52;40.70
37390;BME280;39679;49.000;8.390;2022-08-01T21:01:01;100326.25;;;25.68;41.80
37390;BME280;39679;49.000;8.390;2022-08-01T21:06:07;100327.56;;;25.76;42.17
37390;BME280;39679;49.000;8.390;2022-08-01T21:11:19;100342.50;;;25.82;42.07
37390;BME280;39679;49.000;8.390;2022-08-01T21:16:25;100337.13;;;25.82;41.92
37390;BME280;39679;49.000;8.390;2022-08-01T21:21:26;100334.50;;;25.80;41.54
37390;BME280;39679;49.000;8.390;2022-08-01T21:26:27;100330.97;;;25.80;41.33
37390;BME280;39679;49.000;8.390;2022-08-01T21:31:31;100343.53;;;25.79;41.12
37390;BME280;39679;49.000;8.390;2022-08-01T21:36:33;100347.16;;;25.78;41.28
37390;BME280;39679;49.000;8.390;2022-08-01T21:41:33;100360.56;;;25.78;41.02
37390;BME280;39679;49.000;8.390;2022-08-01T21:46:36;100352.50;;;25.78;40.92
37390;BME280;39679;49.000;8.390;2022-08-01T21:51:43;100358.75;;;25.79;40.85
37390;BME280;39679;49.000;8.390;2022-08-01T22:02:16;100366.81;;;25.79;40.56
37390;BME280;39679;49.000;8.390;2022-08-01T22:07:23;100372.09;;;25.80;40.69
37390;BME280;39679;49.000;8.390;2022-08-01T22:12:25;100374.78;;;25.80;40.46
37390;BME280;39679;49.000;8.390;2022-08-01T22:17:25;100369.34;;;25.82;41.24
37390;BME280;39679;49.000;8.390;2022-08-01T22:22:28;100373.75;;;25.83;42.23
37390;BME280;39679;49.000;8.390;2022-08-01T22:27:30;100368.16;;;25.87;42.81
37390;BME280;39679;49.000;8.390;2022-08-01T22:32:34;100366.78;;;25.96;42.99
37390;BME280;39679;49.000;8.390;2022-08-01T22:37:35;100371.03;;;26.00;43.21
37390;BME280;39679;49.000;8.390;2022-08-01T22:42:57;100382.28;;;26.06;43.38
37390;BME280;39679;49.000;8.390;2022-08-01T22:53:35;100378.47;;;26.12;43.27
37390;BME280;39679;49.000;8.390;2022-08-01T22:58:42;100381.16;;;26.12;43.32
37390;BME280;39679;49.000;8.390;2022-08-01T23:03:45;100392.78;;;26.13;43.46
37390;BME280;39679;49.000;8.390;2022-08-01T23:08:46;100384.63;;;26.14;43.36
37390;BME280;39679;49.000;8.390;2022-08-01T23:13:49;100385.41;;;26.16;43.51
37390;BME280;39679;49.000;8.390;2022-08-01T23:18:50;100381.84;;;26.16;43.50
37390;BME280;39679;49.000;8.390;2022-08-01T23:23:53;100393.47;;;26.16;43.42
37390;BME280;39679;49.000;8.390;2022-08-01T23:28:54;100390.69;;;26.18;43.28
37390;BME280;39679;49.000;8.390;2022-08-01T23:33:55;100388.88;;;26.18;43.71
37390;BME280;39679;49.000;8.390;2022-08-01T23:38:55;100385.41;;;26.16;43.77
37390;BME280;39679;49.000;8.390;2022-08-01T23:43:56;100376.38;;;26.17;43.59
37390;BME280;39679;49.000;8.390;2022-08-01T23:48:56;100372.75;;;26.18;43.84
37390;BME280;39679;49.000;8.390;2022-08-01T23:53:57;100362.88;;;26.19;43.41
37390;BME280;39679;49.000;8.390;2022-08-01T23:58:57;100377.25;;;26.18;43.18
